createdAt,value
2023-02-25T00:00:49.907Z,32.92
2023-02-25T00:04:49.877Z,32.85
2023-02-25T00:08:49.842Z,32.86
2023-02-25T00:12:49.828Z,32.85
2023-02-25T00:16:49.799Z,32.79
2023-02-25T00:20:49.736Z,32.75
2023-02-25T00:24:49.684Z,32.75
2023-02-25T00:28:49.694Z,32.68
2023-02-25T00:32:49.600Z,32.69
2023-02-25T00:36:49.800Z,32.67
2023-02-25T00:40:49.763Z,32.62
2023-02-25T00:44:49.739Z,32.62
2023-02-25T00:48:49.710Z,32.54
2023-02-25T00:52:49.679Z,32.52
2023-02-25T00:56:49.621Z,32.51
2023-02-25T01:00:52.071Z,32.56
2023-02-25T01:04:49.541Z,32.49
2023-02-25T01:08:49.513Z,32.42
2023-02-25T01:12:49.465Z,32.44
2023-02-25T01:16:49.407Z,32.49
2023-02-25T01:20:49.369Z,32.44
2023-02-25T01:24:49.341Z,32.42
2023-02-25T01:28:49.327Z,32.42
2023-02-25T01:32:49.278Z,32.42
2023-02-25T01:36:49.220Z,32.38
2023-02-25T01:40:49.218Z,32.33
2023-02-25T01:44:49.174Z,32.34
2023-02-25T01:48:49.120Z,32.26
2023-02-25T01:52:49.093Z,32.27
2023-02-25T01:56:49.046Z,32.34
2023-02-25T02:00:49.100Z,32.29
2023-02-25T02:04:49.072Z,32.31
2023-02-25T02:08:49.216Z,32.23
2023-02-25T02:12:49.287Z,32.22
2023-02-25T02:16:49.372Z,32.19
2023-02-25T02:20:49.327Z,32.22
2023-02-25T02:24:49.364Z,32.16
2023-02-25T02:28:49.419Z,32.18
2023-02-25T02:32:49.594Z,32.22
2023-02-25T02:36:49.510Z,32.18
2023-02-25T02:40:49.591Z,32.20
2023-02-25T02:44:49.617Z,32.12
2023-02-25T02:48:49.619Z,32.19
2023-02-25T02:52:49.596Z,32.18
2023-02-25T02:56:49.599Z,32.18
2023-02-25T03:00:49.697Z,32.12
2023-02-25T03:04:49.584Z,32.13
2023-02-25T03:08:49.620Z,32.10
2023-02-25T03:12:49.613Z,32.14
2023-02-25T03:16:49.713Z,32.12
2023-02-25T03:20:49.657Z,32.10
2023-02-25T03:24:49.645Z,32.08
2023-02-25T03:28:49.636Z,32.09
2023-02-25T03:32:50.454Z,32.13
2023-02-25T03:36:49.629Z,32.09
2023-02-25T03:40:49.672Z,32.05
2023-02-25T03:44:49.614Z,32.02
2023-02-25T03:48:49.595Z,32.05
2023-02-25T03:52:49.587Z,32.06
2023-02-25T03:56:49.555Z,32.03
2023-02-25T04:00:49.570Z,31.98
2023-02-25T04:04:49.624Z,31.99
2023-02-25T04:08:49.521Z,32.05
2023-02-25T04:12:49.484Z,31.95
2023-02-25T04:16:49.482Z,31.97
2023-02-25T04:20:49.517Z,32.02
2023-02-25T04:24:49.477Z,31.94
2023-02-25T04:28:49.507Z,31.95
2023-02-25T04:32:49.627Z,31.97
2023-02-25T04:36:49.517Z,31.91
2023-02-25T04:40:49.515Z,31.88
2023-02-25T04:44:49.553Z,31.90
2023-02-25T04:48:49.577Z,31.91
2023-02-25T04:52:49.577Z,31.91
2023-02-25T04:56:49.546Z,31.91
2023-02-25T05:00:49.579Z,31.92
2023-02-25T05:04:49.652Z,31.84
2023-02-25T05:08:49.631Z,31.84
2023-02-25T05:12:49.645Z,31.88
2023-02-25T05:16:49.662Z,31.83
2023-02-25T05:20:49.702Z,31.75
2023-02-25T05:24:49.733Z,31.75
2023-02-25T05:28:49.776Z,31.71
2023-02-25T05:32:49.978Z,31.78
2023-02-25T05:36:49.876Z,31.74
2023-02-25T05:40:49.898Z,31.70
2023-02-25T05:44:49.925Z,31.76
2023-02-25T05:48:49.982Z,31.70
2023-02-25T05:52:49.980Z,31.66
2023-02-25T05:56:50.025Z,31.69
2023-02-25T06:00:50.083Z,31.70
2023-02-25T06:04:50.091Z,31.61
2023-02-25T06:08:50.262Z,31.67
2023-02-25T06:12:50.189Z,31.66
2023-02-25T06:16:50.265Z,31.65
2023-02-25T06:20:50.287Z,31.62
2023-02-25T06:24:50.335Z,31.61
2023-02-25T06:28:50.350Z,31.63
2023-02-25T06:32:50.452Z,31.59
2023-02-25T06:36:50.514Z,31.59
2023-02-25T06:40:50.587Z,31.54
2023-02-25T06:44:50.629Z,31.55
2023-02-25T06:48:50.714Z,31.51
2023-02-25T06:52:50.771Z,31.46
2023-02-25T06:56:50.827Z,31.47
2023-02-25T07:00:50.960Z,31.45
2023-02-25T07:04:51.004Z,31.44
2023-02-25T07:08:51.004Z,31.45
2023-02-25T07:12:51.093Z,31.40
2023-02-25T07:16:51.277Z,31.39
2023-02-25T07:20:51.254Z,31.40
2023-02-25T07:24:51.391Z,31.47
2023-02-25T07:28:51.361Z,31.34
2023-02-25T07:32:51.477Z,31.45
2023-02-25T07:36:51.540Z,31.42
2023-02-25T07:40:51.582Z,31.33
2023-02-25T07:44:51.653Z,31.30
2023-02-25T07:48:51.753Z,31.31
2023-02-25T07:52:51.800Z,31.26
2023-02-25T07:56:51.898Z,31.27
2023-02-25T08:00:51.946Z,31.21
2023-02-25T08:04:52.153Z,31.28
2023-02-25T08:08:52.252Z,31.18
2023-02-25T08:12:52.173Z,31.21
2023-02-25T08:16:52.268Z,31.21
2023-02-25T08:20:52.309Z,31.14
2023-02-25T08:24:52.387Z,31.18
2023-02-25T08:28:52.426Z,31.12
2023-02-25T08:32:52.567Z,31.14
2023-02-25T08:36:52.582Z,31.06
2023-02-25T08:40:52.670Z,31.02
2023-02-25T08:44:52.745Z,31.04
2023-02-25T08:48:52.876Z,31.04
2023-02-25T08:52:52.887Z,31.00
2023-02-25T08:56:52.874Z,30.97
2023-02-25T09:00:53.064Z,30.97
2023-02-25T09:04:53.052Z,30.88
2023-02-25T09:08:53.023Z,30.96
2023-02-25T09:12:53.058Z,30.92
2023-02-25T09:16:53.254Z,30.87
2023-02-25T09:20:53.151Z,30.87
2023-02-25T09:24:53.170Z,30.81
2023-02-25T09:28:53.158Z,30.79
2023-02-25T09:32:53.385Z,30.79
2023-02-25T09:36:53.236Z,30.74
2023-02-25T09:40:53.231Z,30.73
2023-02-25T09:44:53.256Z,30.66
2023-02-25T09:48:53.220Z,30.57
2023-02-25T09:52:53.186Z,30.65
2023-02-25T09:56:53.186Z,30.64
2023-02-25T10:00:55.442Z,30.50
2023-02-25T10:04:53.209Z,30.44
2023-02-25T10:08:53.135Z,30.10
2023-02-25T10:12:53.176Z,30.12
2023-02-25T10:16:53.313Z,30.07
2023-02-25T10:20:53.369Z,30.14
2023-02-25T10:24:53.280Z,30.10
2023-02-25T10:28:53.287Z,30.09
2023-02-25T10:32:53.459Z,30.09
2023-02-25T10:36:53.208Z,30.07
2023-02-25T10:40:53.150Z,29.97
2023-02-25T10:44:53.139Z,29.92
2023-02-25T10:48:53.152Z,30.00
2023-02-25T10:52:53.062Z,30.00
2023-02-25T10:56:53.005Z,29.96
2023-02-25T11:00:53.055Z,29.98
2023-02-25T11:04:53.019Z,29.98
2023-02-25T11:08:53.006Z,29.99
2023-02-25T11:12:52.952Z,29.99
2023-02-25T11:16:52.905Z,29.88
2023-02-25T11:20:52.862Z,29.91
2023-02-25T11:24:52.857Z,29.86
2023-02-25T11:28:52.809Z,29.87
2023-02-25T11:32:52.834Z,29.89
2023-02-25T11:36:52.736Z,29.91
2023-02-25T11:40:52.700Z,29.92
2023-02-25T11:44:52.809Z,29.94
2023-02-25T11:48:53.029Z,29.90
2023-02-25T11:52:53.186Z,29.91
2023-02-25T11:56:53.447Z,29.86
2023-02-25T12:00:53.618Z,29.91
2023-02-25T12:04:53.889Z,29.96
2023-02-25T12:08:54.095Z,29.93
2023-02-25T12:12:54.343Z,29.90
2023-02-25T12:16:54.532Z,29.91
2023-02-25T12:20:54.752Z,29.90
2023-02-25T12:24:54.958Z,29.88
2023-02-25T12:28:55.175Z,29.88
2023-02-25T12:32:55.430Z,29.89
2023-02-25T12:36:55.592Z,29.86
2023-02-25T12:40:55.837Z,29.85
2023-02-25T12:44:56.020Z,29.81
2023-02-25T12:48:56.226Z,29.85
2023-02-25T12:52:56.420Z,29.81
2023-02-25T12:56:56.582Z,29.82
2023-02-25T13:00:56.837Z,29.75
2023-02-25T13:04:56.965Z,29.79
2023-02-25T13:08:58.877Z,29.77
2023-02-25T13:12:57.185Z,29.78
2023-02-25T13:16:57.162Z,29.78
2023-02-25T13:20:57.107Z,29.79
2023-02-25T13:24:57.056Z,29.80
2023-02-25T13:28:56.992Z,29.74
2023-02-25T13:32:56.969Z,29.69
2023-02-25T13:36:56.927Z,29.72
2023-02-25T13:40:56.921Z,29.72
2023-02-25T13:44:56.950Z,29.68
2023-02-25T13:48:57.128Z,29.71
2023-02-25T13:52:57.361Z,29.65
2023-02-25T13:56:57.739Z,29.67
2023-02-25T14:00:57.819Z,29.64
2023-02-25T14:04:58.014Z,29.65
2023-02-25T14:08:58.198Z,29.68
2023-02-25T14:12:58.437Z,29.68
2023-02-25T14:16:58.628Z,29.66
2023-02-25T14:20:58.864Z,29.65
2023-02-25T14:24:58.852Z,29.69
2023-02-25T14:28:58.786Z,29.68
2023-02-25T14:32:58.795Z,29.64
2023-02-25T14:36:58.696Z,29.64
2023-02-25T14:40:58.685Z,29.59
2023-02-25T14:44:58.648Z,29.62
2023-02-25T14:48:58.590Z,29.59
2023-02-25T14:52:58.564Z,29.71
2023-02-25T14:56:58.531Z,29.69
2023-02-25T15:00:58.534Z,29.64
2023-02-25T15:04:58.498Z,29.75
2023-02-25T15:08:58.490Z,29.76
2023-02-25T15:12:58.419Z,29.72
2023-02-25T15:16:58.385Z,29.73
2023-02-25T15:20:58.337Z,29.75
2023-02-25T15:24:58.332Z,29.75
2023-02-25T15:28:58.274Z,29.75
2023-02-25T15:32:58.233Z,29.77
2023-02-25T15:36:58.193Z,29.71
2023-02-25T15:40:58.331Z,29.73
2023-02-25T15:44:58.265Z,29.75
2023-02-25T15:48:58.242Z,29.69
2023-02-25T15:52:58.213Z,29.70
2023-02-25T15:56:58.173Z,29.71
2023-02-25T16:00:58.254Z,29.71
2023-02-25T16:04:58.270Z,29.74
2023-02-25T16:08:58.069Z,29.68
2023-02-25T16:12:58.040Z,29.70
2023-02-25T16:16:58.002Z,29.68
2023-02-25T16:20:57.969Z,29.66
2023-02-25T16:24:57.921Z,29.70
2023-02-25T16:28:57.892Z,29.67
2023-02-25T16:32:57.865Z,29.61
2023-02-25T16:36:57.817Z,29.61
2023-02-25T16:40:57.784Z,29.62
2023-02-25T16:44:57.762Z,29.64
2023-02-25T16:48:57.708Z,29.64
2023-02-25T16:52:57.644Z,29.61
2023-02-25T16:56:57.646Z,29.61
2023-02-25T17:00:57.667Z,29.60
2023-02-25T17:04:57.633Z,29.57
2023-02-25T17:08:57.621Z,29.58
2023-02-25T17:12:57.609Z,29.54
2023-02-25T17:16:57.704Z,29.55
2023-02-25T17:20:57.605Z,29.58
2023-02-25T17:24:57.587Z,29.55
2023-02-25T17:28:57.603Z,29.52
2023-02-25T17:32:57.593Z,29.52
2023-02-25T17:36:57.581Z,29.52
2023-02-25T17:40:57.633Z,29.48
2023-02-25T17:44:57.647Z,29.59
2023-02-25T17:48:57.648Z,29.49
2023-02-25T17:52:57.638Z,29.45
2023-02-25T17:56:57.644Z,29.48
2023-02-25T18:00:57.672Z,29.48
2023-02-25T18:04:57.678Z,29.48
2023-02-25T18:08:57.707Z,29.46
2023-02-25T18:12:57.695Z,29.42
2023-02-25T18:16:57.758Z,29.45
2023-02-25T18:20:57.805Z,29.44
2023-02-25T18:24:57.789Z,29.44
2023-02-25T18:28:57.826Z,29.44
2023-02-25T18:32:57.898Z,29.38
2023-02-25T18:36:57.883Z,29.42
2023-02-25T18:40:57.922Z,29.41
2023-02-25T18:44:57.975Z,29.38
2023-02-25T18:48:58.024Z,29.38
2023-02-25T18:52:58.075Z,29.45
2023-02-25T18:56:58.175Z,29.38
2023-02-25T19:00:58.229Z,29.37
2023-02-25T19:04:58.221Z,29.35
2023-02-25T19:08:58.295Z,29.36
2023-02-25T19:12:58.372Z,29.35
2023-02-25T19:16:58.407Z,29.29
2023-02-25T19:20:58.470Z,29.32
2023-02-25T19:24:58.512Z,29.27
2023-02-25T19:28:58.577Z,29.31
2023-02-25T19:32:58.653Z,29.27
2023-02-25T19:36:58.703Z,29.29
2023-02-25T19:40:58.746Z,29.24
2023-02-25T19:44:59.482Z,29.25
2023-02-25T19:48:58.884Z,29.27
2023-02-25T19:52:58.949Z,29.18
2023-02-25T19:56:59.006Z,29.21
2023-02-25T20:00:59.120Z,29.22
2023-02-25T20:04:59.187Z,29.22
2023-02-25T20:08:59.233Z,29.26
2023-02-25T20:12:59.353Z,29.21
2023-02-25T20:16:59.425Z,29.20
2023-02-25T20:20:59.508Z,29.21
2023-02-25T20:24:59.584Z,29.19
2023-02-25T20:28:59.700Z,29.19
2023-02-25T20:32:59.780Z,29.17
2023-02-25T20:36:59.886Z,29.15
2023-02-25T20:40:59.985Z,29.15
2023-02-25T20:45:00.165Z,29.11
2023-02-25T20:49:00.157Z,29.14
2023-02-25T20:53:00.296Z,29.15
2023-02-25T20:57:00.348Z,29.11
2023-02-25T21:01:00.527Z,29.10
2023-02-25T21:05:00.588Z,29.06
2023-02-25T21:09:00.687Z,29.06
2023-02-25T21:13:00.809Z,29.10
2023-02-25T21:17:00.884Z,29.08
2023-02-25T21:21:00.983Z,29.07
2023-02-25T21:25:01.113Z,29.06
2023-02-25T21:29:01.212Z,29.05
2023-02-25T21:33:01.304Z,28.99
2023-02-25T21:37:01.466Z,29.00
2023-02-25T21:41:01.541Z,29.03
2023-02-25T21:45:01.667Z,29.01
2023-02-25T21:49:01.796Z,28.97
2023-02-25T21:53:01.913Z,28.92
2023-02-25T21:57:02.045Z,29.02
2023-02-25T22:01:02.199Z,29.09
2023-02-25T22:05:02.259Z,28.98
2023-02-25T22:09:02.409Z,28.99
2023-02-25T22:13:02.536Z,29.02
2023-02-25T22:17:02.642Z,29.02
2023-02-25T22:21:02.802Z,28.89
2023-02-25T22:25:02.907Z,28.93
2023-02-25T22:29:03.036Z,28.89
2023-02-25T22:33:03.178Z,28.89
2023-02-25T22:37:03.266Z,28.93
2023-02-25T22:41:03.434Z,28.90
2023-02-25T22:45:03.527Z,28.86
2023-02-25T22:49:03.660Z,28.86
2023-02-25T22:53:03.804Z,28.86
2023-02-25T22:57:03.910Z,28.87
2023-02-25T23:01:04.023Z,28.84
2023-02-25T23:05:04.142Z,28.90
2023-02-25T23:09:04.272Z,28.88
2023-02-25T23:13:04.418Z,28.88
2023-02-25T23:17:04.537Z,28.85
2023-02-25T23:21:04.617Z,28.83
2023-02-25T23:25:04.737Z,28.90
2023-02-25T23:29:04.844Z,28.85
2023-02-25T23:33:04.982Z,28.83
2023-02-25T23:37:05.053Z,28.85
2023-02-25T23:41:05.175Z,28.77
2023-02-25T23:45:05.289Z,28.80
2023-02-25T23:49:05.426Z,28.85
2023-02-25T23:53:05.532Z,28.85
2023-02-25T23:57:05.633Z,28.80
